sensor_id;sensor_type;location;lat;lon;timestamp;temperature;humidity
46366;DHT22;32073;49.166;8.076;2022-10-10T00:01:49;14.10;55.50
46366;DHT22;32073;49.166;8.076;2022-10-10T00:05:50;14.10;55.60
46366;DHT22;32073;49.166;8.076;2022-10-10T00:09:51;14.00;55.60
46366;DHT22;32073;49.166;8.076;2022-10-10T00:13:52;14.10;55.80
46366;DHT22;32073;49.166;8.076;2022-10-10T00:17:52;14.00;55.80
46366;DHT22;32073;49.166;8.076;2022-10-10T00:21:53;13.90;55.80
46366;DHT22;32073;49.166;8.076;2022-10-10T00:25:54;13.90;56.00
46366;DHT22;32073;49.166;8.076;2022-10-10T00:29:55;13.90;55.90
46366;DHT22;32073;49.166;8.076;2022-10-10T00:33:55;13.80;56.00
46366;DHT22;32073;49.166;8.076;2022-10-10T00:37:56;13.80;56.00
46366;DHT22;32073;49.166;8.076;2022-10-10T00:41:57;13.80;56.10
46366;DHT22;32073;49.166;8.076;2022-10-10T00:45:57;13.70;56.10
46366;DHT22;32073;49.166;8.076;2022-10-10T00:49:58;13.70;56.20
46366;DHT22;32073;49.166;8.076;2022-10-10T00:54:03;13.60;56.20
46366;DHT22;32073;49.166;8.076;2022-10-10T00:58:06;13.60;56.40
46366;DHT22;32073;49.166;8.076;2022-10-10T01:02:08;13.50;56.90
46366;DHT22;32073;49.166;8.076;2022-10-10T01:06:09;13.60;56.40
46366;DHT22;32073;49.166;8.076;2022-10-10T01:10:13;13.50;56.50
46366;DHT22;32073;49.166;8.076;2022-10-10T01:14:18;13.50;56.60
46366;DHT22;32073;49.166;8.076;2022-10-10T01:27:41;13.40;57.00
46366;DHT22;32073;49.166;8.076;2022-10-10T01:31:47;13.30;57.00
46366;DHT22;32073;49.166;8.076;2022-10-10T01:35:54;13.30;56.80
46366;DHT22;32073;49.166;8.076;2022-10-10T01:44:11;13.30;57.10
46366;DHT22;32073;49.166;8.076;2022-10-10T01:48:12;13.30;57.00
46366;DHT22;32073;49.166;8.076;2022-10-10T02:01:25;13.30;57.20
46366;DHT22;32073;49.166;8.076;2022-10-10T02:06:02;13.20;57.40
46366;DHT22;32073;49.166;8.076;2022-10-10T02:10:10;13.20;57.50
46366;DHT22;32073;49.166;8.076;2022-10-10T02:14:20;13.10;57.20
46366;DHT22;32073;49.166;8.076;2022-10-10T02:18:26;13.10;57.60
46366;DHT22;32073;49.166;8.076;2022-10-10T02:22:29;13.10;57.50
46366;DHT22;32073;49.166;8.076;2022-10-10T02:26:30;13.10;57.50
46366;DHT22;32073;49.166;8.076;2022-10-10T02:30:34;13.10;57.50
46366;DHT22;32073;49.166;8.076;2022-10-10T02:34:39;13.10;57.70
46366;DHT22;32073;49.166;8.076;2022-10-10T02:38:47;13.10;57.80
46366;DHT22;32073;49.166;8.076;2022-10-10T02:42:49;13.10;57.80
46366;DHT22;32073;49.166;8.076;2022-10-10T02:46:51;13.10;57.80
46366;DHT22;32073;49.166;8.076;2022-10-10T02:50:51;13.10;57.90
46366;DHT22;32073;49.166;8.076;2022-10-10T02:54:52;13.10;57.90
46366;DHT22;32073;49.166;8.076;2022-10-10T02:58:53;13.10;58.00
46366;DHT22;32073;49.166;8.076;2022-10-10T03:02:54;13.10;58.10
46366;DHT22;32073;49.166;8.076;2022-10-10T03:06:54;13.10;58.20
46366;DHT22;32073;49.166;8.076;2022-10-10T03:10:58;13.10;58.30
46366;DHT22;32073;49.166;8.076;2022-10-10T03:15:00;13.10;58.50
46366;DHT22;32073;49.166;8.076;2022-10-10T03:19:00;13.10;58.40
46366;DHT22;32073;49.166;8.076;2022-10-10T03:23:02;13.00;58.40
46366;DHT22;32073;49.166;8.076;2022-10-10T03:27:03;13.00;58.40
46366;DHT22;32073;49.166;8.076;2022-10-10T03:31:04;13.00;58.50
46366;DHT22;32073;49.166;8.076;2022-10-10T03:35:04;13.00;58.50
46366;DHT22;32073;49.166;8.076;2022-10-10T03:39:05;13.00;58.50
46366;DHT22;32073;49.166;8.076;2022-10-10T03:43:09;13.00;58.50
46366;DHT22;32073;49.166;8.076;2022-10-10T03:47:11;12.90;58.50
46366;DHT22;32073;49.166;8.076;2022-10-10T03:51:12;12.90;58.50
46366;DHT22;32073;49.166;8.076;2022-10-10T03:55:12;12.90;58.50
46366;DHT22;32073;49.166;8.076;2022-10-10T03:59:13;12.80;58.50
46366;DHT22;32073;49.166;8.076;2022-10-10T04:03:14;12.80;58.60
46366;DHT22;32073;49.166;8.076;2022-10-10T04:07:14;12.80;58.70
46366;DHT22;32073;49.166;8.076;2022-10-10T04:11:15;12.70;58.70
46366;DHT22;32073;49.166;8.076;2022-10-10T04:15:16;12.70;58.70
46366;DHT22;32073;49.166;8.076;2022-10-10T04:19:17;12.60;58.70
46366;DHT22;32073;49.166;8.076;2022-10-10T04:23:17;12.70;58.80
46366;DHT22;32073;49.166;8.076;2022-10-10T04:27:18;12.60;58.80
46366;DHT22;32073;49.166;8.076;2022-10-10T04:31:19;12.60;59.00
46366;DHT22;32073;49.166;8.076;2022-10-10T04:35:20;12.60;59.10
46366;DHT22;32073;49.166;8.076;2022-10-10T04:39:20;12.60;59.20
46366;DHT22;32073;49.166;8.076;2022-10-10T04:43:21;12.60;59.40
46366;DHT22;32073;49.166;8.076;2022-10-10T04:47:22;12.70;59.70
46366;DHT22;32073;49.166;8.076;2022-10-10T04:51:23;12.80;60.00
46366;DHT22;32073;49.166;8.076;2022-10-10T04:55:24;12.90;60.10
46366;DHT22;32073;49.166;8.076;2022-10-10T04:59:27;13.00;60.10
46366;DHT22;32073;49.166;8.076;2022-10-10T05:03:28;13.10;60.40
46366;DHT22;32073;49.166;8.076;2022-10-10T05:07:29;13.20;60.30
46366;DHT22;32073;49.166;8.076;2022-10-10T05:11:29;13.20;60.30
46366;DHT22;32073;49.166;8.076;2022-10-10T05:15:33;13.30;60.40
46366;DHT22;32073;49.166;8.076;2022-10-10T05:19:34;13.30;60.50
46366;DHT22;32073;49.166;8.076;2022-10-10T05:23:35;13.50;60.50
46366;DHT22;32073;49.166;8.076;2022-10-10T05:27:37;13.60;60.70
46366;DHT22;32073;49.166;8.076;2022-10-10T05:31:37;13.60;60.70
46366;DHT22;32073;49.166;8.076;2022-10-10T05:35:38;13.70;60.80
46366;DHT22;32073;49.166;8.076;2022-10-10T05:39:39;13.80;60.90
46366;DHT22;32073;49.166;8.076;2022-10-10T05:43:39;13.80;60.90
46366;DHT22;32073;49.166;8.076;2022-10-10T05:47:40;13.90;61.00
46366;DHT22;32073;49.166;8.076;2022-10-10T05:51:40;14.00;61.10
46366;DHT22;32073;49.166;8.076;2022-10-10T05:55:41;14.00;61.20
46366;DHT22;32073;49.166;8.076;2022-10-10T05:59:43;14.00;61.20
46366;DHT22;32073;49.166;8.076;2022-10-10T06:03:44;14.10;61.30
46366;DHT22;32073;49.166;8.076;2022-10-10T06:07:45;14.10;61.40
46366;DHT22;32073;49.166;8.076;2022-10-10T06:11:45;14.10;61.30
46366;DHT22;32073;49.166;8.076;2022-10-10T06:15:49;14.20;61.40
46366;DHT22;32073;49.166;8.076;2022-10-10T06:19:50;14.20;61.60
46366;DHT22;32073;49.166;8.076;2022-10-10T06:23:51;14.20;61.60
46366;DHT22;32073;49.166;8.076;2022-10-10T06:27:52;14.30;61.60
46366;DHT22;32073;49.166;8.076;2022-10-10T06:31:52;14.30;61.70
46366;DHT22;32073;49.166;8.076;2022-10-10T06:35:53;14.40;61.80
46366;DHT22;32073;49.166;8.076;2022-10-10T06:39:54;14.40;61.70
46366;DHT22;32073;49.166;8.076;2022-10-10T06:43:55;14.50;61.90
46366;DHT22;32073;49.166;8.076;2022-10-10T06:47:56;14.50;61.80
46366;DHT22;32073;49.166;8.076;2022-10-10T06:51:56;14.60;61.90
46366;DHT22;32073;49.166;8.076;2022-10-10T06:55:58;14.60;61.90
46366;DHT22;32073;49.166;8.076;2022-10-10T06:59:59;14.70;62.50
46366;DHT22;32073;49.166;8.076;2022-10-10T07:03:59;14.80;62.10
46366;DHT22;32073;49.166;8.076;2022-10-10T07:08:00;14.80;62.00
46366;DHT22;32073;49.166;8.076;2022-10-10T07:12:01;14.90;62.10
46366;DHT22;32073;49.166;8.076;2022-10-10T07:16:03;14.90;62.20
46366;DHT22;32073;49.166;8.076;2022-10-10T07:20:07;15.00;62.30
46366;DHT22;32073;49.166;8.076;2022-10-10T07:24:07;15.10;62.30
46366;DHT22;32073;49.166;8.076;2022-10-10T07:28:09;15.20;62.20
46366;DHT22;32073;49.166;8.076;2022-10-10T07:32:10;15.20;62.30
46366;DHT22;32073;49.166;8.076;2022-10-10T07:36:11;15.30;62.30
46366;DHT22;32073;49.166;8.076;2022-10-10T07:40:12;15.40;62.30
46366;DHT22;32073;49.166;8.076;2022-10-10T07:44:13;15.40;62.30
46366;DHT22;32073;49.166;8.076;2022-10-10T07:48:14;15.50;62.40
46366;DHT22;32073;49.166;8.076;2022-10-10T07:52:14;15.60;63.00
46366;DHT22;32073;49.166;8.076;2022-10-10T07:56:17;15.70;62.40
46366;DHT22;32073;49.166;8.076;2022-10-10T08:00:17;15.70;62.30
46366;DHT22;32073;49.166;8.076;2022-10-10T08:04:18;15.70;62.30
46366;DHT22;32073;49.166;8.076;2022-10-10T08:08:19;15.80;62.30
46366;DHT22;32073;49.166;8.076;2022-10-10T08:12:19;15.80;62.40
46366;DHT22;32073;49.166;8.076;2022-10-10T08:16:20;15.90;62.50
46366;DHT22;32073;49.166;8.076;2022-10-10T08:20:21;15.90;62.60
46366;DHT22;32073;49.166;8.076;2022-10-10T08:24:21;16.00;62.70
46366;DHT22;32073;49.166;8.076;2022-10-10T08:28:22;16.00;62.70
46366;DHT22;32073;49.166;8.076;2022-10-10T08:32:23;16.10;62.80
46366;DHT22;32073;49.166;8.076;2022-10-10T08:36:24;16.10;63.00
46366;DHT22;32073;49.166;8.076;2022-10-10T08:40:25;16.20;63.00
46366;DHT22;32073;49.166;8.076;2022-10-10T08:44:51;16.30;63.20
46366;DHT22;32073;49.166;8.076;2022-10-10T08:48:57;16.30;63.60
46366;DHT22;32073;49.166;8.076;2022-10-10T08:53:12;16.40;63.30
46366;DHT22;32073;49.166;8.076;2022-10-10T08:57:33;16.50;63.70
46366;DHT22;32073;49.166;8.076;2022-10-10T09:01:36;16.60;63.70
46366;DHT22;32073;49.166;8.076;2022-10-10T09:10:28;16.70;64.20
46366;DHT22;32073;49.166;8.076;2022-10-10T09:15:19;16.80;64.10
46366;DHT22;32073;49.166;8.076;2022-10-10T09:19:30;17.00;64.00
46366;DHT22;32073;49.166;8.076;2022-10-10T09:23:38;17.00;64.10
46366;DHT22;32073;49.166;8.076;2022-10-10T09:27:43;17.10;64.20
46366;DHT22;32073;49.166;8.076;2022-10-10T09:32:10;17.30;63.90
46366;DHT22;32073;49.166;8.076;2022-10-10T09:36:22;17.40;64.60
46366;DHT22;32073;49.166;8.076;2022-10-10T09:40:37;17.50;64.60
46366;DHT22;32073;49.166;8.076;2022-10-10T09:44:41;17.50;64.70
46366;DHT22;32073;49.166;8.076;2022-10-10T09:48:42;17.70;64.50
46366;DHT22;32073;49.166;8.076;2022-10-10T09:52:45;17.80;64.50
46366;DHT22;32073;49.166;8.076;2022-10-10T09:56:55;17.90;64.40
46366;DHT22;32073;49.166;8.076;2022-10-10T10:01:19;18.00;64.70
46366;DHT22;32073;49.166;8.076;2022-10-10T10:05:25;18.10;64.90
46366;DHT22;32073;49.166;8.076;2022-10-10T10:09:26;18.30;64.80
46366;DHT22;32073;49.166;8.076;2022-10-10T10:13:29;18.40;64.70
46366;DHT22;32073;49.166;8.076;2022-10-10T10:17:31;18.50;64.60
46366;DHT22;32073;49.166;8.076;2022-10-10T10:21:49;18.60;64.60
46366;DHT22;32073;49.166;8.076;2022-10-10T10:26:02;18.70;64.90
46366;DHT22;32073;49.166;8.076;2022-10-10T10:30:22;18.80;64.80
46366;DHT22;32073;49.166;8.076;2022-10-10T10:34:39;19.00;64.70
46366;DHT22;32073;49.166;8.076;2022-10-10T10:44:10;19.30;64.70
46366;DHT22;32073;49.166;8.076;2022-10-10T10:48:28;19.40;64.50
46366;DHT22;32073;49.166;8.076;2022-10-10T10:53:18;19.60;64.60
46366;DHT22;32073;49.166;8.076;2022-10-10T10:57:45;19.70;64.40
46366;DHT22;32073;49.166;8.076;2022-10-10T11:15:25;20.20;63.40
46366;DHT22;32073;49.166;8.076;2022-10-10T11:28:28;20.60;62.60
46366;DHT22;32073;49.166;8.076;2022-10-10T11:36:47;20.80;61.50
46366;DHT22;32073;49.166;8.076;2022-10-10T11:40:57;20.90;61.70
46366;DHT22;32073;49.166;8.076;2022-10-10T11:45:27;20.90;61.60
46366;DHT22;32073;49.166;8.076;2022-10-10T11:49:47;21.10;61.50
46366;DHT22;32073;49.166;8.076;2022-10-10T11:53:58;21.20;60.40
46366;DHT22;32073;49.166;8.076;2022-10-10T12:02:34;21.40;60.00
46366;DHT22;32073;49.166;8.076;2022-10-10T12:06:43;21.50;59.70
46366;DHT22;32073;49.166;8.076;2022-10-10T12:10:59;21.60;59.60
46366;DHT22;32073;49.166;8.076;2022-10-10T12:15:05;21.60;59.70
46366;DHT22;32073;49.166;8.076;2022-10-10T12:19:16;21.70;59.70
46366;DHT22;32073;49.166;8.076;2022-10-10T12:23:30;21.80;59.30
46366;DHT22;32073;49.166;8.076;2022-10-10T12:27:46;21.80;59.10
46366;DHT22;32073;49.166;8.076;2022-10-10T12:40:20;22.00;58.60
46366;DHT22;32073;49.166;8.076;2022-10-10T12:48:34;22.20;57.80
46366;DHT22;32073;49.166;8.076;2022-10-10T12:52:46;22.30;57.90
46366;DHT22;32073;49.166;8.076;2022-10-10T12:56:52;22.40;57.10
46366;DHT22;32073;49.166;8.076;2022-10-10T13:01:07;22.40;57.30
46366;DHT22;32073;49.166;8.076;2022-10-10T13:05:29;22.40;57.20
46366;DHT22;32073;49.166;8.076;2022-10-10T13:09:33;22.50;56.50
46366;DHT22;32073;49.166;8.076;2022-10-10T13:13:34;22.50;57.30
46366;DHT22;32073;49.166;8.076;2022-10-10T13:17:37;22.50;57.00
46366;DHT22;32073;49.166;8.076;2022-10-10T13:21:40;22.50;56.80
46366;DHT22;32073;49.166;8.076;2022-10-10T13:25:44;22.60;57.10
46366;DHT22;32073;49.166;8.076;2022-10-10T13:29:45;22.70;56.80
46366;DHT22;32073;49.166;8.076;2022-10-10T13:33:46;22.70;56.70
46366;DHT22;32073;49.166;8.076;2022-10-10T13:37:55;22.70;56.70
46366;DHT22;32073;49.166;8.076;2022-10-10T13:41:58;22.80;56.60
46366;DHT22;32073;49.166;8.076;2022-10-10T13:46:01;22.90;56.80
46366;DHT22;32073;49.166;8.076;2022-10-10T13:54:45;22.90;56.20
46366;DHT22;32073;49.166;8.076;2022-10-10T13:58:51;23.00;56.40
46366;DHT22;32073;49.166;8.076;2022-10-10T14:02:54;23.10;56.40
46366;DHT22;32073;49.166;8.076;2022-10-10T14:07:13;23.10;56.50
46366;DHT22;32073;49.166;8.076;2022-10-10T14:11:19;23.20;56.10
46366;DHT22;32073;49.166;8.076;2022-10-10T14:19:31;23.10;55.80
46366;DHT22;32073;49.166;8.076;2022-10-10T14:23:32;23.10;56.10
46366;DHT22;32073;49.166;8.076;2022-10-10T14:27:33;23.30;56.10
46366;DHT22;32073;49.166;8.076;2022-10-10T14:31:33;23.20;56.10
46366;DHT22;32073;49.166;8.076;2022-10-10T14:35:34;23.20;56.00
46366;DHT22;32073;49.166;8.076;2022-10-10T14:39:35;23.30;56.00
46366;DHT22;32073;49.166;8.076;2022-10-10T14:43:37;23.30;55.90
46366;DHT22;32073;49.166;8.076;2022-10-10T14:47:37;23.20;56.00
46366;DHT22;32073;49.166;8.076;2022-10-10T14:51:38;23.20;55.80
46366;DHT22;32073;49.166;8.076;2022-10-10T14:55:39;23.10;55.90
46366;DHT22;32073;49.166;8.076;2022-10-10T14:59:43;23.10;55.90
46366;DHT22;32073;49.166;8.076;2022-10-10T15:03:44;23.00;56.10
46366;DHT22;32073;49.166;8.076;2022-10-10T15:07:44;23.00;56.20
46366;DHT22;32073;49.166;8.076;2022-10-10T15:11:45;22.90;56.20
46366;DHT22;32073;49.166;8.076;2022-10-10T15:15:46;23.00;56.40
46366;DHT22;32073;49.166;8.076;2022-10-10T15:19:47;23.00;56.50
46366;DHT22;32073;49.166;8.076;2022-10-10T15:23:47;22.80;56.40
46366;DHT22;32073;49.166;8.076;2022-10-10T15:27:48;22.90;56.50
46366;DHT22;32073;49.166;8.076;2022-10-10T15:31:49;22.90;56.60
46366;DHT22;32073;49.166;8.076;2022-10-10T15:36:02;22.90;56.70
46366;DHT22;32073;49.166;8.076;2022-10-10T15:40:05;22.80;56.60
46366;DHT22;32073;49.166;8.076;2022-10-10T15:44:12;22.80;56.70
46366;DHT22;32073;49.166;8.076;2022-10-10T15:48:13;22.80;56.70
46366;DHT22;32073;49.166;8.076;2022-10-10T15:52:14;22.80;56.80
46366;DHT22;32073;49.166;8.076;2022-10-10T15:56:15;22.80;56.90
46366;DHT22;32073;49.166;8.076;2022-10-10T16:00:16;22.70;56.90
46366;DHT22;32073;49.166;8.076;2022-10-10T16:04:17;22.70;57.00
46366;DHT22;32073;49.166;8.076;2022-10-10T16:08:17;22.60;57.00
46366;DHT22;32073;49.166;8.076;2022-10-10T16:12:18;22.60;57.10
46366;DHT22;32073;49.166;8.076;2022-10-10T16:16:20;22.50;57.10
46366;DHT22;32073;49.166;8.076;2022-10-10T16:20:21;22.50;57.10
46366;DHT22;32073;49.166;8.076;2022-10-10T16:24:22;22.40;57.10
46366;DHT22;32073;49.166;8.076;2022-10-10T16:28:23;22.30;57.00
46366;DHT22;32073;49.166;8.076;2022-10-10T16:32:24;22.30;57.10
46366;DHT22;32073;49.166;8.076;2022-10-10T16:36:30;22.20;57.30
46366;DHT22;32073;49.166;8.076;2022-10-10T16:40:34;22.10;58.20
46366;DHT22;32073;49.166;8.076;2022-10-10T16:44:36;22.00;57.60
46366;DHT22;32073;49.166;8.076;2022-10-10T16:48:37;21.90;57.60
46366;DHT22;32073;49.166;8.076;2022-10-10T16:52:39;21.80;57.70
46366;DHT22;32073;49.166;8.076;2022-10-10T16:56:39;21.80;57.80
46366;DHT22;32073;49.166;8.076;2022-10-10T17:00:41;21.70;57.90
46366;DHT22;32073;49.166;8.076;2022-10-10T17:04:42;21.60;57.90
46366;DHT22;32073;49.166;8.076;2022-10-10T17:08:43;21.50;57.90
46366;DHT22;32073;49.166;8.076;2022-10-10T17:12:44;21.40;58.00
46366;DHT22;32073;49.166;8.076;2022-10-10T17:16:45;21.30;58.10
46366;DHT22;32073;49.166;8.076;2022-10-10T17:20:46;21.20;58.10
46366;DHT22;32073;49.166;8.076;2022-10-10T17:24:47;21.10;58.30
46366;DHT22;32073;49.166;8.076;2022-10-10T17:28:49;21.00;58.30
46366;DHT22;32073;49.166;8.076;2022-10-10T17:32:50;20.90;58.40
46366;DHT22;32073;49.166;8.076;2022-10-10T17:36:50;20.80;58.60
46366;DHT22;32073;49.166;8.076;2022-10-10T17:40:56;20.80;58.70
46366;DHT22;32073;49.166;8.076;2022-10-10T17:44:58;20.70;59.10
46366;DHT22;32073;49.166;8.076;2022-10-10T17:48:59;20.60;59.00
46366;DHT22;32073;49.166;8.076;2022-10-10T17:52:59;20.60;59.10
46366;DHT22;32073;49.166;8.076;2022-10-10T17:57:00;20.50;59.80
46366;DHT22;32073;49.166;8.076;2022-10-10T18:01:02;20.50;59.30
46366;DHT22;32073;49.166;8.076;2022-10-10T18:05:04;20.50;59.40
46366;DHT22;32073;49.166;8.076;2022-10-10T18:09:05;20.50;59.60
46366;DHT22;32073;49.166;8.076;2022-10-10T18:13:07;20.50;59.70
46366;DHT22;32073;49.166;8.076;2022-10-10T18:17:08;20.40;59.70
46366;DHT22;32073;49.166;8.076;2022-10-10T18:21:09;20.40;60.00
46366;DHT22;32073;49.166;8.076;2022-10-10T18:25:11;20.40;60.00
46366;DHT22;32073;49.166;8.076;2022-10-10T18:29:12;20.40;60.00
46366;DHT22;32073;49.166;8.076;2022-10-10T18:33:13;20.30;59.80
46366;DHT22;32073;49.166;8.076;2022-10-10T18:37:14;20.30;60.00
46366;DHT22;32073;49.166;8.076;2022-10-10T18:41:20;20.30;60.10
46366;DHT22;32073;49.166;8.076;2022-10-10T18:45:22;20.30;60.20
46366;DHT22;32073;49.166;8.076;2022-10-10T18:49:22;20.20;60.30
46366;DHT22;32073;49.166;8.076;2022-10-10T18:53:24;20.20;60.40
46366;DHT22;32073;49.166;8.076;2022-10-10T18:57:25;20.20;60.60
46366;DHT22;32073;49.166;8.076;2022-10-10T19:01:27;20.20;60.60
46366;DHT22;32073;49.166;8.076;2022-10-10T19:05:29;20.10;61.40
46366;DHT22;32073;49.166;8.076;2022-10-10T19:09:30;20.10;60.80
46366;DHT22;32073;49.166;8.076;2022-10-10T19:13:33;20.10;60.90
46366;DHT22;32073;49.166;8.076;2022-10-10T19:17:34;20.10;61.00
46366;DHT22;32073;49.166;8.076;2022-10-10T19:21:36;20.10;61.00
46366;DHT22;32073;49.166;8.076;2022-10-10T19:25:38;20.10;61.30
46366;DHT22;32073;49.166;8.076;2022-10-10T19:29:39;20.00;61.30
46366;DHT22;32073;49.166;8.076;2022-10-10T19:33:40;20.00;61.30
46366;DHT22;32073;49.166;8.076;2022-10-10T19:37:42;20.00;61.50
46366;DHT22;32073;49.166;8.076;2022-10-10T19:41:43;20.00;61.60
46366;DHT22;32073;49.166;8.076;2022-10-10T19:45:46;20.00;61.70
46366;DHT22;32073;49.166;8.076;2022-10-10T19:49:47;20.00;61.70
46366;DHT22;32073;49.166;8.076;2022-10-10T19:53:48;20.00;61.90
46366;DHT22;32073;49.166;8.076;2022-10-10T19:57:49;20.00;61.80
46366;DHT22;32073;49.166;8.076;2022-10-10T20:01:49;20.00;61.90
46366;DHT22;32073;49.166;8.076;2022-10-10T20:05:50;20.00;61.90
46366;DHT22;32073;49.166;8.076;2022-10-10T20:09:51;20.10;62.00
46366;DHT22;32073;49.166;8.076;2022-10-10T20:13:52;20.00;62.00
46366;DHT22;32073;49.166;8.076;2022-10-10T20:17:54;20.00;62.00
46366;DHT22;32073;49.166;8.076;2022-10-10T20:21:55;20.00;62.10
46366;DHT22;32073;49.166;8.076;2022-10-10T20:25:55;20.10;62.10
46366;DHT22;32073;49.166;8.076;2022-10-10T20:29:56;20.10;62.10
46366;DHT22;32073;49.166;8.076;2022-10-10T20:33:59;20.10;62.10
46366;DHT22;32073;49.166;8.076;2022-10-10T20:38:02;20.10;62.10
46366;DHT22;32073;49.166;8.076;2022-10-10T20:42:03;20.00;62.00
46366;DHT22;32073;49.166;8.076;2022-10-10T20:46:10;20.00;61.90
46366;DHT22;32073;49.166;8.076;2022-10-10T20:50:11;20.00;61.90
46366;DHT22;32073;49.166;8.076;2022-10-10T20:54:12;19.90;61.70
46366;DHT22;32073;49.166;8.076;2022-10-10T20:58:14;19.90;61.80
46366;DHT22;32073;49.166;8.076;2022-10-10T21:02:15;19.90;61.90
46366;DHT22;32073;49.166;8.076;2022-10-10T21:06:21;19.80;61.90
46366;DHT22;32073;49.166;8.076;2022-10-10T21:10:23;19.80;62.30
46366;DHT22;32073;49.166;8.076;2022-10-10T21:14:24;19.80;62.30
46366;DHT22;32073;49.166;8.076;2022-10-10T21:18:25;19.80;62.40
46366;DHT22;32073;49.166;8.076;2022-10-10T21:22:25;19.80;62.40
46366;DHT22;32073;49.166;8.076;2022-10-10T21:26:27;19.80;62.30
46366;DHT22;32073;49.166;8.076;2022-10-10T21:30:29;19.80;62.30
46366;DHT22;32073;49.166;8.076;2022-10-10T21:34:29;19.80;62.30
46366;DHT22;32073;49.166;8.076;2022-10-10T21:38:30;19.70;62.40
46366;DHT22;32073;49.166;8.076;2022-10-10T21:42:31;19.70;62.70
46366;DHT22;32073;49.166;8.076;2022-10-10T21:46:34;19.80;62.80
46366;DHT22;32073;49.166;8.076;2022-10-10T21:50:36;19.70;62.80
46366;DHT22;32073;49.166;8.076;2022-10-10T21:54:38;19.70;62.80
46366;DHT22;32073;49.166;8.076;2022-10-10T21:58:40;19.70;62.90
46366;DHT22;32073;49.166;8.076;2022-10-10T22:02:41;19.70;63.00
46366;DHT22;32073;49.166;8.076;2022-10-10T22:06:42;19.80;63.00
46366;DHT22;32073;49.166;8.076;2022-10-10T22:10:43;19.70;63.10
46366;DHT22;32073;49.166;8.076;2022-10-10T22:14:44;19.80;63.20
46366;DHT22;32073;49.166;8.076;2022-10-10T22:18:45;19.80;63.30
46366;DHT22;32073;49.166;8.076;2022-10-10T22:22:46;19.80;63.20
46366;DHT22;32073;49.166;8.076;2022-10-10T22:26:47;19.80;63.30
46366;DHT22;32073;49.166;8.076;2022-10-10T22:30:47;19.80;63.30
46366;DHT22;32073;49.166;8.076;2022-10-10T22:34:49;19.80;63.30
46366;DHT22;32073;49.166;8.076;2022-10-10T22:38:49;19.80;63.50
46366;DHT22;32073;49.166;8.076;2022-10-10T22:42:51;19.80;63.40
46366;DHT22;32073;49.166;8.076;2022-10-10T22:46:52;19.90;63.50
46366;DHT22;32073;49.166;8.076;2022-10-10T22:51:13;19.80;63.40
46366;DHT22;32073;49.166;8.076;2022-10-10T22:55:15;19.80;63.80
46366;DHT22;32073;49.166;8.076;2022-10-10T22:59:16;19.80;63.50
46366;DHT22;32073;49.166;8.076;2022-10-10T23:03:17;19.70;63.50
46366;DHT22;32073;49.166;8.076;2022-10-10T23:07:17;19.70;63.60
46366;DHT22;32073;49.166;8.076;2022-10-10T23:11:19;19.70;63.70
46366;DHT22;32073;49.166;8.076;2022-10-10T23:15:20;19.80;63.80
46366;DHT22;32073;49.166;8.076;2022-10-10T23:19:20;19.80;63.80
46366;DHT22;32073;49.166;8.076;2022-10-10T23:23:21;19.70;63.90
46366;DHT22;32073;49.166;8.076;2022-10-10T23:27:22;19.70;63.90
46366;DHT22;32073;49.166;8.076;2022-10-10T23:31:22;19.60;63.90
46366;DHT22;32073;49.166;8.076;2022-10-10T23:35:23;19.70;64.00
46366;DHT22;32073;49.166;8.076;2022-10-10T23:39:23;19.70;64.00
46366;DHT22;32073;49.166;8.076;2022-10-10T23:43:24;19.70;63.90
46366;DHT22;32073;49.166;8.076;2022-10-10T23:47:25;19.70;63.90
46366;DHT22;32073;49.166;8.076;2022-10-10T23:51:26;19.60;63.90
46366;DHT22;32073;49.166;8.076;2022-10-10T23:55:28;19.60;64.00
46366;DHT22;32073;49.166;8.076;2022-10-10T23:59:29;19.60;64.10
